createdAt,value
2022-11-25T00:00:06.877Z,99.73
2022-11-25T00:01:06.873Z,99.73
2022-11-25T00:02:06.935Z,99.84
2022-11-25T00:03:06.944Z,99.90
2022-11-25T00:04:06.813Z,99.90
2022-11-25T00:05:06.852Z,99.90
2022-11-25T00:06:06.813Z,99.90
2022-11-25T00:07:06.840Z,99.99
2022-11-25T00:08:06.762Z,99.99
2022-11-25T00:09:06.779Z,99.99
2022-11-25T00:10:06.763Z,99.99
2022-11-25T00:11:06.762Z,99.99
2022-11-25T00:12:06.694Z,99.99
2022-11-25T00:13:06.729Z,99.99
2022-11-25T00:14:06.672Z,99.95
2022-11-25T00:15:06.714Z,99.85
2022-11-25T00:16:06.697Z,99.95
2022-11-25T00:17:06.706Z,99.95
2022-11-25T00:18:06.644Z,99.85
2022-11-25T00:19:06.645Z,99.74
2022-11-25T00:20:06.644Z,99.54
2022-11-25T00:21:06.602Z,99.28
2022-11-25T00:22:06.578Z,99.07
2022-11-25T00:23:06.586Z,98.86
2022-11-25T00:24:06.553Z,98.66
2022-11-25T00:25:06.592Z,98.39
2022-11-25T00:26:06.537Z,98.08
2022-11-25T00:27:06.546Z,98.08
2022-11-25T00:28:06.517Z,98.29
2022-11-25T00:29:06.510Z,98.29
2022-11-25T00:30:06.472Z,98.39
2022-11-25T00:31:06.481Z,98.50
2022-11-25T00:32:06.521Z,98.50
2022-11-25T00:33:06.477Z,98.39
2022-11-25T00:34:06.448Z,98.29
2022-11-25T00:35:06.442Z,98.29
2022-11-25T00:36:06.409Z,98.29
2022-11-25T00:37:06.405Z,98.39
2022-11-25T00:38:06.404Z,98.50
2022-11-25T00:39:06.389Z,98.75
2022-11-25T00:40:06.339Z,99.02
2022-11-25T00:41:06.357Z,99.12
2022-11-25T00:42:06.331Z,99.02
2022-11-25T00:43:06.347Z,98.96
2022-11-25T00:44:06.283Z,98.96
2022-11-25T00:45:06.327Z,98.96
2022-11-25T00:46:06.328Z,99.06
2022-11-25T00:47:06.280Z,99.16
2022-11-25T00:48:06.246Z,99.27
2022-11-25T00:49:06.244Z,99.33
2022-11-25T00:50:06.256Z,99.43
2022-11-25T00:51:06.235Z,99.54
2022-11-25T00:52:06.198Z,99.54
2022-11-25T00:53:06.224Z,99.54
2022-11-25T00:54:06.157Z,99.54
2022-11-25T00:55:06.221Z,99.54
2022-11-25T00:56:06.135Z,99.33
2022-11-25T00:57:06.152Z,99.22
2022-11-25T00:58:06.108Z,99.12
2022-11-25T00:59:06.135Z,99.02
2022-11-25T01:00:06.147Z,98.71
2022-11-25T01:01:06.171Z,98.50
2022-11-25T01:02:06.113Z,98.50
2022-11-25T01:03:06.071Z,98.50
2022-11-25T01:04:06.035Z,98.50
2022-11-25T01:05:06.045Z,98.39
2022-11-25T01:06:06.034Z,98.39
2022-11-25T01:07:06.031Z,98.50
2022-11-25T01:08:05.984Z,98.71
2022-11-25T01:09:06.000Z,98.91
2022-11-25T01:10:05.968Z,99.12
2022-11-25T01:11:05.987Z,99.12
2022-11-25T01:12:05.949Z,99.12
2022-11-25T01:13:05.955Z,99.22
2022-11-25T01:14:05.907Z,99.18
2022-11-25T01:15:05.915Z,99.07
2022-11-25T01:16:05.940Z,99.02
2022-11-25T01:17:05.914Z,98.81
2022-11-25T01:18:05.845Z,98.60
2022-11-25T01:19:05.898Z,98.54
2022-11-25T01:20:05.868Z,98.75
2022-11-25T01:21:05.858Z,99.16
2022-11-25T01:22:05.801Z,99.37
2022-11-25T01:23:05.822Z,99.48
2022-11-25T01:24:05.780Z,99.73
2022-11-25T01:25:05.820Z,99.73
2022-11-25T01:26:05.756Z,99.84
2022-11-25T01:27:05.757Z,99.99
2022-11-25T01:28:05.748Z,99.99
2022-11-25T01:29:05.783Z,99.99
2022-11-25T01:30:05.694Z,99.99
2022-11-25T01:31:05.712Z,99.99
2022-11-25T01:32:05.793Z,99.99
2022-11-25T01:33:05.660Z,99.99
2022-11-25T01:34:05.700Z,99.99
2022-11-25T01:35:05.646Z,99.99
2022-11-25T01:36:05.646Z,99.99
2022-11-25T01:37:05.627Z,99.99
2022-11-25T01:38:05.623Z,99.99
2022-11-25T01:39:05.594Z,99.99
2022-11-25T01:40:05.617Z,99.99
2022-11-25T01:41:06.523Z,99.99
2022-11-25T01:42:05.564Z,99.99
2022-11-25T01:43:05.540Z,99.99
2022-11-25T01:44:05.542Z,99.99
2022-11-25T01:45:05.511Z,99.99
2022-11-25T01:46:05.622Z,99.99
2022-11-25T01:47:05.492Z,99.99
2022-11-25T01:48:05.498Z,99.99
2022-11-25T01:49:05.502Z,99.99
2022-11-25T01:50:05.492Z,99.99
2022-11-25T01:51:05.439Z,99.99
2022-11-25T01:52:05.478Z,99.99
2022-11-25T01:53:05.399Z,99.99
2022-11-25T01:54:05.431Z,99.99
2022-11-25T01:55:05.372Z,99.99
2022-11-25T01:56:05.389Z,99.99
2022-11-25T01:57:05.372Z,99.99
2022-11-25T01:58:05.361Z,99.99
2022-11-25T01:59:05.326Z,99.99
2022-11-25T02:00:05.363Z,99.99
2022-11-25T02:01:05.392Z,99.99
2022-11-25T02:02:05.366Z,99.99
2022-11-25T02:03:05.274Z,99.99
2022-11-25T02:04:05.319Z,99.99
2022-11-25T02:05:05.254Z,99.99
2022-11-25T02:06:05.259Z,99.99
2022-11-25T02:07:05.255Z,99.99
2022-11-25T02:08:05.240Z,99.99
2022-11-25T02:09:05.221Z,99.99
2022-11-25T02:10:05.204Z,99.99
2022-11-25T02:11:05.178Z,99.99
2022-11-25T02:12:05.191Z,99.99
2022-11-25T02:13:05.173Z,99.99
2022-11-25T02:14:05.163Z,99.96
2022-11-25T02:15:05.124Z,99.80
2022-11-25T02:16:05.198Z,99.59
2022-11-25T02:17:05.094Z,99.59
2022-11-25T02:18:05.116Z,99.49
2022-11-25T02:19:05.095Z,99.38
2022-11-25T02:20:05.176Z,99.38
2022-11-25T02:21:05.068Z,99.38
2022-11-25T02:22:05.069Z,99.38
2022-11-25T02:23:05.024Z,99.12
2022-11-25T02:24:05.053Z,98.96
2022-11-25T02:25:05.004Z,99.06
2022-11-25T02:26:05.025Z,99.27
2022-11-25T02:27:04.974Z,99.52
2022-11-25T02:28:04.981Z,99.84
2022-11-25T02:29:04.939Z,99.99
2022-11-25T02:30:04.988Z,99.99
2022-11-25T02:31:04.941Z,99.99
2022-11-25T02:32:04.982Z,99.99
2022-11-25T02:33:04.876Z,99.99
2022-11-25T02:34:04.899Z,99.99
2022-11-25T02:35:04.873Z,99.99
2022-11-25T02:36:04.896Z,99.99
2022-11-25T02:37:04.852Z,99.99
2022-11-25T02:38:04.837Z,99.99
2022-11-25T02:39:04.825Z,99.99
2022-11-25T02:40:04.828Z,99.99
2022-11-25T02:41:04.807Z,99.99
2022-11-25T02:42:04.807Z,99.99
2022-11-25T02:43:04.780Z,99.99
2022-11-25T02:44:04.772Z,99.99
2022-11-25T02:45:04.726Z,99.99
2022-11-25T02:46:04.869Z,99.99
2022-11-25T02:47:04.716Z,99.99
2022-11-25T02:48:04.756Z,99.99
2022-11-25T02:49:09.264Z,99.99
2022-11-25T02:50:04.708Z,99.99
2022-11-25T02:51:04.679Z,99.99
2022-11-25T02:52:04.675Z,99.99
2022-11-25T02:53:04.635Z,99.99
2022-11-25T02:54:04.680Z,99.99
2022-11-25T02:55:04.604Z,99.99
2022-11-25T02:56:04.630Z,99.99
2022-11-25T02:57:04.589Z,99.99
2022-11-25T02:58:04.613Z,99.99
2022-11-25T02:59:04.580Z,99.99
2022-11-25T03:00:04.586Z,99.99
2022-11-25T03:01:04.578Z,99.99
2022-11-25T03:02:04.609Z,99.99
2022-11-25T03:03:04.492Z,99.99
2022-11-25T03:04:04.527Z,99.99
2022-11-25T03:05:04.479Z,99.99
2022-11-25T03:06:04.483Z,99.99
2022-11-25T03:07:04.468Z,99.99
2022-11-25T03:08:04.479Z,99.99
2022-11-25T03:09:04.442Z,99.99
2022-11-25T03:10:04.448Z,99.99
2022-11-25T03:11:04.397Z,99.99
2022-11-25T03:12:04.452Z,99.99
2022-11-25T03:13:04.381Z,99.99
2022-11-25T03:14:04.385Z,99.99
2022-11-25T03:15:04.381Z,99.99
2022-11-25T03:16:04.410Z,99.99
2022-11-25T03:17:04.335Z,99.99
2022-11-25T03:18:04.329Z,99.99
2022-11-25T03:19:04.329Z,99.99
2022-11-25T03:20:04.316Z,99.99
2022-11-25T03:21:04.304Z,99.99
2022-11-25T03:22:04.327Z,99.99
2022-11-25T03:23:04.270Z,99.99
2022-11-25T03:24:04.291Z,99.99
2022-11-25T03:25:04.223Z,99.99
2022-11-25T03:26:04.233Z,99.99
2022-11-25T03:27:04.229Z,99.99
2022-11-25T03:28:04.217Z,99.99
2022-11-25T03:29:04.174Z,99.99
2022-11-25T03:30:04.185Z,99.99
2022-11-25T03:31:04.137Z,99.99
2022-11-25T03:32:08.173Z,99.99
2022-11-25T03:33:04.137Z,99.99
2022-11-25T03:34:04.130Z,99.99
2022-11-25T03:35:04.094Z,99.99
2022-11-25T03:36:04.110Z,99.99
2022-11-25T03:37:04.225Z,99.99
2022-11-25T03:38:04.098Z,99.99
2022-11-25T03:39:04.044Z,99.99
2022-11-25T03:40:04.056Z,99.99
2022-11-25T03:41:04.016Z,99.99
2022-11-25T03:42:04.065Z,99.99
2022-11-25T03:43:03.989Z,99.99
2022-11-25T03:44:04.013Z,99.99
2022-11-25T03:45:03.966Z,99.99
2022-11-25T03:46:03.995Z,99.99
2022-11-25T03:47:03.939Z,99.99
2022-11-25T03:48:03.953Z,99.99
2022-11-25T03:49:03.929Z,99.99
2022-11-25T03:50:03.959Z,99.99
2022-11-25T03:51:03.883Z,99.99
2022-11-25T03:52:03.900Z,99.99
2022-11-25T03:53:03.858Z,99.99
2022-11-25T03:54:03.890Z,99.99
2022-11-25T03:55:03.838Z,99.99
2022-11-25T03:56:03.839Z,99.99
2022-11-25T03:57:03.816Z,99.99
2022-11-25T03:58:03.848Z,99.99
2022-11-25T03:59:03.809Z,99.99
2022-11-25T04:00:03.797Z,99.99
2022-11-25T04:01:03.807Z,99.99
2022-11-25T04:02:03.828Z,99.99
2022-11-25T04:03:03.729Z,99.99
2022-11-25T04:04:03.763Z,99.99
2022-11-25T04:05:03.703Z,99.99
2022-11-25T04:06:03.725Z,99.99
2022-11-25T04:07:03.681Z,99.99
2022-11-25T04:08:03.746Z,99.99
2022-11-25T04:09:03.687Z,99.99
2022-11-25T04:10:03.672Z,99.99
2022-11-25T04:11:03.633Z,99.99
2022-11-25T04:12:03.642Z,99.99
2022-11-25T04:13:03.618Z,99.99
2022-11-25T04:14:03.641Z,99.99
2022-11-25T04:15:03.603Z,99.99
2022-11-25T04:16:03.585Z,99.99
2022-11-25T04:17:03.613Z,99.99
2022-11-25T04:18:03.565Z,99.99
2022-11-25T04:19:03.546Z,99.99
2022-11-25T04:20:03.559Z,99.99
2022-11-25T04:21:03.497Z,99.99
2022-11-25T04:22:03.536Z,99.99
2022-11-25T04:23:03.496Z,99.99
2022-11-25T04:24:03.486Z,99.99
2022-11-25T04:25:03.471Z,99.99
2022-11-25T04:26:03.491Z,99.99
2022-11-25T04:27:03.433Z,99.99
2022-11-25T04:28:03.443Z,99.99
2022-11-25T04:29:03.396Z,99.99
2022-11-25T04:30:03.437Z,99.99
2022-11-25T04:31:03.401Z,99.99
2022-11-25T04:32:03.390Z,99.99
2022-11-25T04:33:03.369Z,99.99
2022-11-25T04:34:03.363Z,99.99
2022-11-25T04:35:03.329Z,99.99
2022-11-25T04:36:03.364Z,99.99
2022-11-25T04:37:03.297Z,99.99
2022-11-25T04:38:03.308Z,99.99
2022-11-25T04:39:03.301Z,99.99
2022-11-25T04:40:03.286Z,99.99
2022-11-25T04:41:03.243Z,99.99
2022-11-25T04:42:03.256Z,99.99
2022-11-25T04:43:09.040Z,99.99
2022-11-25T04:44:03.234Z,99.99
2022-11-25T04:46:18.718Z,99.99
2022-11-25T04:47:03.268Z,99.99
2022-11-25T04:48:03.215Z,99.99
2022-11-25T04:49:03.158Z,99.99
2022-11-25T04:50:03.164Z,99.99
2022-11-25T04:51:03.126Z,99.99
2022-11-25T04:52:03.154Z,99.99
2022-11-25T04:53:03.100Z,99.99
2022-11-25T04:54:03.131Z,99.99
2022-11-25T04:55:03.068Z,99.99
2022-11-25T04:56:03.088Z,99.99
2022-11-25T04:57:03.033Z,99.99
2022-11-25T04:58:03.062Z,99.99
2022-11-25T04:59:03.039Z,99.99
2022-11-25T05:00:03.040Z,99.99
2022-11-25T05:01:03.020Z,99.99
2022-11-25T05:02:03.039Z,99.99
2022-11-25T05:03:02.985Z,99.99
2022-11-25T05:04:02.979Z,99.99
2022-11-25T05:05:02.954Z,99.99
2022-11-25T05:06:02.955Z,99.99
2022-11-25T05:07:02.929Z,99.99
2022-11-25T05:08:02.953Z,99.99
2022-11-25T05:09:02.908Z,99.99
2022-11-25T05:10:02.896Z,99.99
2022-11-25T05:11:02.854Z,99.99
2022-11-25T05:12:02.906Z,99.99
2022-11-25T05:13:02.856Z,99.99
2022-11-25T05:14:02.882Z,99.99
2022-11-25T05:15:02.818Z,99.99
2022-11-25T05:16:02.815Z,99.99
2022-11-25T05:17:02.880Z,99.99
2022-11-25T05:18:02.807Z,99.99
2022-11-25T05:19:02.857Z,99.99
2022-11-25T05:20:02.780Z,99.99
2022-11-25T05:21:02.733Z,99.99
2022-11-25T05:22:02.742Z,99.99
2022-11-25T05:23:02.712Z,99.99
2022-11-25T05:24:02.741Z,99.99
2022-11-25T05:25:02.680Z,99.99
2022-11-25T05:26:02.694Z,99.99
2022-11-25T05:27:02.663Z,99.99
2022-11-25T05:28:02.676Z,99.99
2022-11-25T05:29:03.210Z,99.99
2022-11-25T05:30:02.661Z,99.99
2022-11-25T05:31:02.697Z,99.99
2022-11-25T05:32:02.606Z,99.99
2022-11-25T05:33:02.610Z,99.99
2022-11-25T05:34:02.612Z,99.99
2022-11-25T05:35:02.571Z,99.99
2022-11-25T05:36:02.571Z,99.99
2022-11-25T05:37:02.551Z,99.99
2022-11-25T05:38:02.546Z,99.99
2022-11-25T05:39:02.503Z,99.99
2022-11-25T05:40:02.550Z,99.99
2022-11-25T05:41:02.511Z,99.99
2022-11-25T05:42:02.487Z,99.99
2022-11-25T05:43:02.450Z,99.99
2022-11-25T05:44:02.461Z,99.99
2022-11-25T05:45:02.463Z,99.99
2022-11-25T05:46:02.482Z,99.99
2022-11-25T05:47:02.422Z,99.99
2022-11-25T05:48:02.398Z,99.99
2022-11-25T05:49:02.466Z,99.99
2022-11-25T05:50:02.358Z,99.99
2022-11-25T05:51:02.402Z,99.99
2022-11-25T05:52:02.370Z,99.99
2022-11-25T05:53:02.348Z,99.99
2022-11-25T05:54:02.323Z,99.99
2022-11-25T05:55:02.331Z,99.99
2022-11-25T05:56:02.425Z,99.99
2022-11-25T05:57:02.350Z,99.99
2022-11-25T05:58:02.257Z,99.99
2022-11-25T05:59:02.277Z,99.99
2022-11-25T06:00:02.255Z,99.99
2022-11-25T06:01:02.252Z,99.99
2022-11-25T06:02:02.655Z,99.99
2022-11-25T06:03:02.383Z,99.99
2022-11-25T06:04:02.231Z,99.99
2022-11-25T06:05:02.231Z,99.99
2022-11-25T06:06:02.160Z,99.99
2022-11-25T06:07:02.185Z,99.99
2022-11-25T06:08:02.146Z,99.99
2022-11-25T06:09:02.145Z,99.99
2022-11-25T06:10:03.492Z,99.99
2022-11-25T06:11:02.138Z,99.99
2022-11-25T06:12:02.107Z,99.99
2022-11-25T06:13:02.113Z,99.99
2022-11-25T06:14:02.063Z,99.99
2022-11-25T06:15:02.083Z,99.99
2022-11-25T06:16:07.558Z,99.99
2022-11-25T06:17:02.047Z,99.99
2022-11-25T06:18:02.005Z,99.99
2022-11-25T06:19:02.078Z,99.99
2022-11-25T06:20:01.986Z,99.99
2022-11-25T06:21:02.035Z,99.99
2022-11-25T06:22:01.988Z,99.99
2022-11-25T06:23:01.960Z,99.99
2022-11-25T06:24:01.937Z,99.99
2022-11-25T06:25:03.900Z,99.99
2022-11-25T06:26:01.920Z,99.99
2022-11-25T06:27:01.941Z,99.99
2022-11-25T06:28:17.270Z,99.99
2022-11-25T06:29:01.899Z,99.99
2022-11-25T06:30:01.884Z,99.99
2022-11-25T06:31:01.971Z,99.99
2022-11-25T06:32:01.874Z,99.99
2022-11-25T06:33:01.827Z,99.99
2022-11-25T06:34:01.789Z,99.99
2022-11-25T06:35:01.804Z,99.99
2022-11-25T06:36:01.809Z,99.99
2022-11-25T06:37:01.804Z,99.99
2022-11-25T06:38:01.743Z,99.99
2022-11-25T06:39:01.752Z,99.99
2022-11-25T06:40:01.712Z,99.99
2022-11-25T06:41:01.734Z,99.99
2022-11-25T06:42:01.724Z,99.99
2022-11-25T06:43:01.704Z,99.99
2022-11-25T06:44:01.673Z,99.99
2022-11-25T06:45:01.685Z,99.99
2022-11-25T06:46:01.662Z,99.99
2022-11-25T06:47:01.684Z,99.99
2022-11-25T06:48:01.606Z,99.99
2022-11-25T06:49:01.628Z,99.99
2022-11-25T06:50:01.579Z,99.99
2022-11-25T06:51:01.617Z,99.99
2022-11-25T06:52:01.590Z,99.99
2022-11-25T06:53:01.583Z,99.99
2022-11-25T06:54:01.541Z,99.99
2022-11-25T06:55:01.550Z,99.99
2022-11-25T06:56:01.542Z,99.99
2022-11-25T06:57:01.523Z,99.99
2022-11-25T06:58:20.555Z,99.99
2022-11-25T06:59:01.500Z,99.99
2022-11-25T07:00:01.467Z,99.99
2022-11-25T07:01:01.467Z,99.99
2022-11-25T07:02:01.536Z,99.99
2022-11-25T07:03:01.491Z,99.99
2022-11-25T07:04:01.418Z,99.99
2022-11-25T07:05:01.425Z,99.99
2022-11-25T07:06:01.399Z,99.99
2022-11-25T07:07:01.423Z,99.99
2022-11-25T07:08:01.378Z,99.99
2022-11-25T07:09:01.397Z,99.99
2022-11-25T07:10:01.339Z,99.99
2022-11-25T07:11:01.363Z,99.99
2022-11-25T07:12:01.341Z,99.99
2022-11-25T07:13:01.342Z,99.99
2022-11-25T07:14:01.289Z,99.99
2022-11-25T07:15:01.365Z,99.99
2022-11-25T07:16:01.311Z,99.99
2022-11-25T07:17:01.270Z,99.99
2022-11-25T07:18:01.237Z,99.99
2022-11-25T07:19:01.246Z,99.99
2022-11-25T07:20:01.201Z,99.99
2022-11-25T07:21:01.238Z,99.99
2022-11-25T07:22:01.200Z,99.99
2022-11-25T07:23:01.189Z,99.99
2022-11-25T07:24:01.170Z,99.99
2022-11-25T07:25:01.159Z,99.99
2022-11-25T07:26:01.141Z,99.99
2022-11-25T07:27:01.171Z,99.99
2022-11-25T07:28:01.101Z,99.99
2022-11-25T07:29:01.116Z,99.99
2022-11-25T07:30:41.478Z,99.99
2022-11-25T07:31:32.861Z,99.99
2022-11-25T07:32:04.423Z,99.99
2022-11-25T07:33:01.097Z,99.99
2022-11-25T07:34:01.104Z,99.99
2022-11-25T07:35:01.048Z,99.99
2022-11-25T07:36:01.003Z,99.99
2022-11-25T07:37:01.017Z,99.99
2022-11-25T07:38:01.019Z,99.99
2022-11-25T07:39:00.989Z,99.99
2022-11-25T07:40:00.985Z,99.99
2022-11-25T07:41:00.963Z,99.99
2022-11-25T07:42:00.947Z,99.99
2022-11-25T07:43:00.949Z,99.99
2022-11-25T07:44:00.918Z,99.99
2022-11-25T07:45:00.937Z,99.99
2022-11-25T07:46:00.913Z,99.99
2022-11-25T07:47:00.939Z,99.99
2022-11-25T07:48:00.884Z,99.99
2022-11-25T07:49:00.880Z,99.99
2022-11-25T07:50:00.848Z,99.99
2022-11-25T07:51:00.849Z,99.99
2022-11-25T07:52:00.794Z,99.99
2022-11-25T07:53:00.829Z,99.99
2022-11-25T07:54:00.771Z,99.99
2022-11-25T07:55:00.811Z,99.99
2022-11-25T07:56:00.734Z,99.99
2022-11-25T07:57:00.773Z,99.99
2022-11-25T07:58:00.723Z,99.99
2022-11-25T07:59:00.733Z,99.99
2022-11-25T08:00:00.731Z,99.99
2022-11-25T08:01:00.706Z,99.99
2022-11-25T08:02:00.835Z,99.99
2022-11-25T08:03:00.739Z,99.99
2022-11-25T08:04:00.633Z,99.99
2022-11-25T08:05:00.658Z,99.99
2022-11-25T08:06:00.620Z,99.99
2022-11-25T08:07:00.632Z,99.99
2022-11-25T08:08:00.689Z,99.99
2022-11-25T08:09:00.601Z,99.99
2022-11-25T08:10:00.580Z,99.99
2022-11-25T08:11:00.588Z,99.99
2022-11-25T08:12:00.535Z,99.99
2022-11-25T08:13:00.570Z,99.99
2022-11-25T08:14:00.515Z,99.99
2022-11-25T08:15:00.531Z,99.99
2022-11-25T08:16:00.548Z,99.99
2022-11-25T08:17:00.503Z,99.99
2022-11-25T08:18:00.500Z,99.99
2022-11-25T08:19:00.469Z,99.99
2022-11-25T08:20:00.444Z,99.99
2022-11-25T08:21:00.448Z,99.99
2022-11-25T08:22:00.408Z,99.99
2022-11-25T08:23:00.466Z,99.99
2022-11-25T08:24:00.391Z,99.99
2022-11-25T08:25:00.398Z,99.99
2022-11-25T08:26:00.353Z,99.99
2022-11-25T08:27:00.372Z,99.99
2022-11-25T08:28:00.356Z,99.99
2022-11-25T08:29:00.372Z,99.99
2022-11-25T08:30:00.314Z,99.99
2022-11-25T08:31:00.389Z,99.99
2022-11-25T08:32:00.270Z,99.99
2022-11-25T08:33:00.322Z,99.99
2022-11-25T08:34:00.256Z,99.99
2022-11-25T08:35:00.273Z,99.99
2022-11-25T08:36:00.228Z,99.99
2022-11-25T08:37:00.225Z,99.99
2022-11-25T08:38:00.225Z,99.99
2022-11-25T08:39:00.242Z,99.99
2022-11-25T08:40:00.799Z,99.99
2022-11-25T08:41:00.179Z,99.99
2022-11-25T08:42:00.139Z,99.99
2022-11-25T08:43:00.221Z,99.99
2022-11-25T08:44:00.129Z,99.99
2022-11-25T08:45:00.157Z,99.99
2022-11-25T08:46:00.136Z,99.99
2022-11-25T08:47:00.264Z,99.99
2022-11-25T08:48:00.080Z,99.99
2022-11-25T08:49:00.094Z,99.99
2022-11-25T08:50:00.052Z,99.99
2022-11-25T08:51:00.054Z,99.99
2022-11-25T08:52:00.015Z,99.99
2022-11-25T08:53:00.043Z,99.99
2022-11-25T08:54:00.011Z,99.99
2022-11-25T08:55:00.015Z,99.99
2022-11-25T08:56:00.126Z,99.99
2022-11-25T08:56:59.970Z,99.99
2022-11-25T08:57:59.935Z,99.99
2022-11-25T08:58:59.945Z,99.99
2022-11-25T08:59:59.943Z,99.99
2022-11-25T09:00:59.920Z,99.99
2022-11-25T09:01:59.940Z,99.99
2022-11-25T09:03:00.035Z,99.99
2022-11-25T09:03:59.873Z,99.99
2022-11-25T09:04:59.889Z,99.99
2022-11-25T09:05:59.830Z,99.99
2022-11-25T09:06:59.887Z,99.99
2022-11-25T09:07:59.897Z,99.99
2022-11-25T09:08:59.846Z,99.99
2022-11-25T09:09:59.801Z,99.99
2022-11-25T09:10:59.918Z,99.99
2022-11-25T09:11:59.773Z,99.99
2022-11-25T09:12:59.770Z,99.99
2022-11-25T09:13:59.819Z,99.99
2022-11-25T09:14:59.775Z,99.99
2022-11-25T09:15:59.801Z,99.99
2022-11-25T09:16:59.740Z,99.99
2022-11-25T09:17:59.675Z,99.99
2022-11-25T09:18:59.690Z,99.99
2022-11-25T09:19:59.674Z,99.99
2022-11-25T09:20:59.656Z,99.99
2022-11-25T09:21:59.623Z,99.99
2022-11-25T09:22:59.628Z,99.99
2022-11-25T09:23:59.603Z,99.99
2022-11-25T09:24:59.610Z,99.99
2022-11-25T09:25:59.609Z,99.99
2022-11-25T09:26:59.602Z,99.99
2022-11-25T09:27:59.552Z,99.99
2022-11-25T09:28:59.595Z,99.99
2022-11-25T09:29:59.562Z,99.99
2022-11-25T09:30:59.576Z,99.99
2022-11-25T09:31:59.636Z,99.99
2022-11-25T09:32:59.501Z,99.99
2022-11-25T09:33:59.502Z,99.99
2022-11-25T09:34:59.519Z,99.99
2022-11-25T09:35:59.476Z,99.99
2022-11-25T09:36:59.457Z,99.99
2022-11-25T09:37:59.450Z,99.99
2022-11-25T09:38:59.430Z,99.99
2022-11-25T09:39:59.417Z,99.99
2022-11-25T09:40:59.401Z,99.99
2022-11-25T09:41:59.353Z,99.99
2022-11-25T09:42:59.409Z,99.99
2022-11-25T09:43:59.335Z,99.99
2022-11-25T09:44:59.404Z,99.99
2022-11-25T09:45:59.355Z,99.99
2022-11-25T09:46:59.382Z,99.99
2022-11-25T09:47:59.279Z,99.99
2022-11-25T09:48:59.305Z,99.99
2022-11-25T09:49:59.292Z,99.99
2022-11-25T09:50:59.281Z,99.99
2022-11-25T09:51:59.225Z,99.99
2022-11-25T09:52:59.272Z,99.99
2022-11-25T09:53:59.207Z,99.99
2022-11-25T09:54:59.235Z,99.99
2022-11-25T09:56:01.617Z,99.99
2022-11-25T09:56:59.187Z,99.99
2022-11-25T09:57:59.810Z,99.99
2022-11-25T09:58:59.175Z,99.99
2022-11-25T09:59:59.181Z,99.99
2022-11-25T10:00:59.194Z,99.99
2022-11-25T10:01:59.195Z,99.99
2022-11-25T10:02:59.315Z,99.99
2022-11-25T10:03:59.177Z,99.99
2022-11-25T10:04:59.120Z,99.99
2022-11-25T10:05:59.117Z,99.99
2022-11-25T10:06:59.088Z,99.99
2022-11-25T10:07:59.066Z,99.99
2022-11-25T10:08:59.020Z,99.99
2022-11-25T10:09:59.018Z,99.99
2022-11-25T10:10:58.984Z,99.99
2022-11-25T10:11:59.051Z,99.99
2022-11-25T10:12:58.952Z,99.99
2022-11-25T10:13:58.974Z,99.99
2022-11-25T10:14:58.933Z,99.99
2022-11-25T10:15:59.103Z,99.99
2022-11-25T10:16:58.920Z,99.99
2022-11-25T10:17:58.929Z,99.99
2022-11-25T10:18:58.889Z,99.99
2022-11-25T10:19:58.912Z,99.99
2022-11-25T10:20:58.877Z,99.99
2022-11-25T10:21:58.890Z,99.99
2022-11-25T10:22:58.830Z,99.99
2022-11-25T10:23:58.902Z,99.99
2022-11-25T10:24:58.809Z,99.99
2022-11-25T10:25:58.878Z,99.99
2022-11-25T10:26:58.791Z,99.99
2022-11-25T10:27:58.805Z,99.99
2022-11-25T10:28:58.786Z,99.99
2022-11-25T10:29:58.784Z,99.99
2022-11-25T10:30:58.782Z,99.99
2022-11-25T10:31:58.739Z,99.99
2022-11-25T10:33:02.356Z,99.99
2022-11-25T10:33:58.758Z,99.99
2022-11-25T10:34:58.689Z,99.99
2022-11-25T10:35:58.697Z,99.99
2022-11-25T10:36:58.664Z,99.99
2022-11-25T10:37:58.658Z,99.99
2022-11-25T10:38:58.690Z,99.99
2022-11-25T10:39:58.687Z,99.99
2022-11-25T10:40:58.586Z,99.99
2022-11-25T10:41:58.612Z,99.99
2022-11-25T10:42:58.574Z,99.99
2022-11-25T10:43:58.595Z,99.99
2022-11-25T10:44:58.566Z,99.99
2022-11-25T10:45:58.562Z,99.99
2022-11-25T10:47:13.492Z,99.99
2022-11-25T10:47:58.633Z,99.99
2022-11-25T10:48:58.528Z,99.99
2022-11-25T10:49:58.508Z,99.99
2022-11-25T10:50:58.467Z,99.99
2022-11-25T10:51:58.483Z,99.99
2022-11-25T10:52:58.521Z,99.99
2022-11-25T10:53:58.463Z,99.99
2022-11-25T10:54:58.440Z,99.99
2022-11-25T10:55:58.455Z,99.99
2022-11-25T10:56:58.424Z,99.99
2022-11-25T10:57:58.431Z,99.99
2022-11-25T10:58:58.367Z,99.99
2022-11-25T10:59:58.370Z,99.99
2022-11-25T11:00:58.336Z,99.99
2022-11-25T11:01:58.433Z,99.99
2022-11-25T11:02:58.385Z,99.99
2022-11-25T11:03:58.326Z,99.99
2022-11-25T11:04:58.295Z,99.99
2022-11-25T11:05:58.306Z,99.99
2022-11-25T11:06:58.277Z,99.99
2022-11-25T11:07:58.317Z,99.99
2022-11-25T11:08:58.237Z,99.99
2022-11-25T11:09:58.254Z,99.99
2022-11-25T11:10:58.224Z,99.99
2022-11-25T11:11:58.244Z,99.99
2022-11-25T11:12:58.207Z,99.99
2022-11-25T11:13:58.215Z,99.99
2022-11-25T11:14:58.187Z,99.99
2022-11-25T11:15:58.204Z,99.99
2022-11-25T11:16:58.134Z,99.99
2022-11-25T11:17:58.182Z,99.99
2022-11-25T11:18:58.101Z,99.99
2022-11-25T11:19:58.137Z,99.99
2022-11-25T11:20:58.101Z,99.99
2022-11-25T11:21:58.095Z,99.99
2022-11-25T11:22:58.067Z,99.99
2022-11-25T11:23:58.086Z,99.99
2022-11-25T11:24:58.053Z,99.99
2022-11-25T11:25:58.056Z,99.99
2022-11-25T11:26:58.007Z,99.99
2022-11-25T11:27:58.025Z,99.99
2022-11-25T11:28:58.018Z,99.99
2022-11-25T11:29:58.013Z,99.99
2022-11-25T11:30:57.969Z,99.99
2022-11-25T11:31:57.987Z,99.99
2022-11-25T11:32:57.990Z,99.99
2022-11-25T11:33:57.960Z,99.99
2022-11-25T11:34:57.904Z,99.99
2022-11-25T11:35:57.956Z,99.99
2022-11-25T11:36:57.903Z,99.99
2022-11-25T11:37:57.882Z,99.99
2022-11-25T11:38:57.853Z,99.99
2022-11-25T11:39:57.873Z,99.99
2022-11-25T11:40:57.849Z,99.99
2022-11-25T11:41:57.847Z,99.99
2022-11-25T11:42:57.810Z,99.99
2022-11-25T11:43:57.815Z,99.99
2022-11-25T11:44:57.772Z,99.99
2022-11-25T11:45:57.812Z,99.99
2022-11-25T11:46:57.823Z,99.99
2022-11-25T11:47:57.730Z,99.99
2022-11-25T11:48:57.763Z,99.99
2022-11-25T11:49:57.709Z,99.99
2022-11-25T11:50:57.756Z,99.99
2022-11-25T11:51:57.683Z,99.99
2022-11-25T11:52:57.696Z,99.99
2022-11-25T11:53:57.657Z,99.99
2022-11-25T11:54:57.673Z,99.99
2022-11-25T11:56:27.044Z,99.99
2022-11-25T11:56:57.671Z,99.99
2022-11-25T11:57:57.609Z,99.99
2022-11-25T11:58:57.666Z,99.99
2022-11-25T11:59:57.581Z,99.99
2022-11-25T12:00:57.611Z,99.99
2022-11-25T12:01:57.611Z,99.99
2022-11-25T12:02:57.601Z,99.99
2022-11-25T12:03:57.523Z,99.99
2022-11-25T12:04:57.544Z,99.99
2022-11-25T12:05:57.522Z,99.99
2022-11-25T12:06:57.563Z,99.99
2022-11-25T12:07:57.533Z,99.99
2022-11-25T12:08:57.495Z,99.99
2022-11-25T12:09:57.452Z,99.99
2022-11-25T12:10:57.468Z,99.99
2022-11-25T12:11:57.417Z,99.99
2022-11-25T12:12:57.463Z,99.99
2022-11-25T12:14:00.798Z,99.99
2022-11-25T12:14:57.399Z,99.99
2022-11-25T12:15:57.436Z,99.99
2022-11-25T12:16:57.380Z,99.99
2022-11-25T12:17:57.375Z,99.99
2022-11-25T12:18:57.358Z,99.99
2022-11-25T12:19:57.309Z,99.99
2022-11-25T12:20:57.328Z,99.99
2022-11-25T12:21:57.311Z,99.99
2022-11-25T12:22:57.342Z,99.99
2022-11-25T12:23:57.306Z,99.99
2022-11-25T12:24:57.285Z,99.99
2022-11-25T12:25:57.239Z,99.99
2022-11-25T12:26:57.249Z,99.99
2022-11-25T12:27:57.220Z,99.99
2022-11-25T12:28:57.258Z,99.99
2022-11-25T12:29:57.208Z,99.99
2022-11-25T12:31:01.890Z,99.99
2022-11-25T12:31:57.228Z,99.99
2022-11-25T12:32:57.220Z,99.99
2022-11-25T12:33:57.134Z,99.99
2022-11-25T12:34:57.154Z,99.99
2022-11-25T12:35:57.106Z,99.99
2022-11-25T12:36:57.124Z,99.99
2022-11-25T12:37:57.143Z,99.99
2022-11-25T12:38:57.111Z,99.99
2022-11-25T12:39:57.079Z,99.99
2022-11-25T12:40:57.094Z,99.99
2022-11-25T12:41:57.055Z,99.99
2022-11-25T12:42:57.040Z,99.99
2022-11-25T12:43:57.004Z,99.99
2022-11-25T12:44:57.044Z,99.99
2022-11-25T12:45:57.079Z,99.99
2022-11-25T12:46:56.986Z,99.99
2022-11-25T12:47:56.961Z,99.99
2022-11-25T12:48:56.962Z,99.99
2022-11-25T12:49:56.963Z,99.99
2022-11-25T12:50:56.957Z,99.99
2022-11-25T12:51:56.926Z,99.99
2022-11-25T12:52:56.912Z,99.99